Time;durP1;ratioP1;P1;durP2;ratioP2;P2;SDS_P1;SDS_P2;PMS_P1;PMS_P2;Temp;Humidity;BMP_temperature;BMP_pressure;BME280_temperature;BME280_humidity;BME280_pressure;Samples;Min_cycle;Max_cycle;Signal;HPM_P1;HPM_P2
2023/10/05 00:00:40;;;;;;;1.65;0.70;;;;;;;10.55;87.03;100467.88;335434;28;17437;-71
2023/10/05 00:01:13;;;;;;;;;;;;;;;;;;;;;
2023/10/05 00:01:27;;;;;;;2.30;0.70;;;;;;;10.58;86.87;100477.34;334267;28;16817;-71
2023/10/05 00:01:46;;;;;;;1.20;0.60;;;;;;;10.54;87.44;100475.72;335140;28;17815;-71
2023/10/05 00:02:10;;;;;;;0.98;0.60;;;;;;;10.55;87.61;100477.44;335484;28;17954;-71
2023/10/05 00:02:23;;;;;;;1.23;0.55;;;;;;;10.55;87.39;100483.47;335024;28;17386;-71
2023/10/05 00:02:35;;;;;;;1.55;0.50;;;;;;;10.56;87.25;100476.53;337103;28;4678;-71
2023/10/05 00:02:47;;;;;;;0.98;0.50;;;;;;;10.56;87.67;100474.81;337533;28;4736;-71
2023/10/05 00:03:02;;;;;;;1.15;0.60;;;;;;;10.56;87.67;100473.94;334661;28;19128;-71
2023/10/05 00:03:14;;;;;;;0.80;0.68;;;;;;;10.55;87.46;100480.03;335084;28;18056;-71
2023/10/05 00:03:27;;;;;;;0.90;0.80;;;;;;;10.54;87.54;100480.91;338278;28;4677;-71
2023/10/05 00:03:43;;;;;;;1.35;1.00;;;;;;;10.56;87.82;100480.00;335332;28;4890;-71
2023/10/05 00:03:56;;;;;;;2.20;0.73;;;;;;;10.56;87.65;100485.22;335647;28;17511;-71
2023/10/05 00:04:08;;;;;;;1.63;0.47;;;;;;;10.56;87.83;100481.72;338199;28;16166;-71
2023/10/05 00:04:22;;;;;;;0.85;0.68;;;;;;;10.54;88.29;100481.78;335823;28;18544;-71
2023/10/05 00:04:41;;;;;;;1.38;0.80;;;;;;;10.52;89.06;100487.88;331034;28;18145;-71
2023/10/05 00:04:55;;;;;;;1.00;0.50;;;;;;;10.52;88.39;100477.47;335336;28;17599;-71
2023/10/05 00:05:07;;;;;;;0.70;0.50;;;;;;;10.50;89.34;100485.34;338592;28;5099;-71
2023/10/05 00:05:22;;;;;;;0.90;0.60;;;;;;;10.53;88.86;100479.22;334732;28;18700;-71
2023/10/05 00:05:36;;;;;;;1.15;0.63;;;;;;;10.55;88.35;100480.88;336946;28;4635;-71
2023/10/05 00:05:48;;;;;;;1.05;0.55;;;;;;;10.57;88.15;100480.88;337035;28;17295;-71
2023/10/05 00:06:14;;;;;;;1.52;0.70;;;;;;;10.58;87.79;100479.97;335446;28;5164;-71
2023/10/05 00:06:26;;;;;;;1.13;0.52;;;;;;;10.54;88.17;100483.50;332085;28;17645;-71
2023/10/05 00:06:42;;;;;;;1.52;0.68;;;;;;;10.55;87.88;100483.47;337376;28;5298;-71
2023/10/05 00:06:54;;;;;;;1.15;0.70;;;;;;;10.52;87.82;100477.47;334802;28;17975;-71
2023/10/05 00:07:22;;;;;;;0.70;0.70;;;;;;;10.50;87.93;100480.13;333916;28;4702;-71
2023/10/05 00:07:35;;;;;;;0.65;0.60;;;;;;;10.45;88.53;100475.91;334615;28;17109;-71
2023/10/05 00:07:47;;;;;;;1.45;0.88;;;;;;;10.42;88.64;100481.13;338110;28;4674;-71
2023/10/05 00:07:59;;;;;;;1.98;1.05;;;;;;;10.41;88.30;100482.88;335142;28;18559;-71
2023/10/05 00:08:11;;;;;;;1.90;0.93;;;;;;;10.43;88.42;100482.88;338407;28;4649;-71
2023/10/05 00:08:23;;;;;;;2.25;0.60;;;;;;;10.45;88.25;100481.09;338125;28;4677;-71
2023/10/05 00:08:36;;;;;;;2.20;0.70;;;;;;;10.46;88.60;100477.59;333983;28;18669;-71
2023/10/05 00:08:48;;;;;;;0.90;0.60;;;;;;;10.45;88.10;100478.50;334056;28;4576;-71
2023/10/05 00:09:05;;;;;;;0.95;0.68;;;;;;;10.48;88.19;100474.06;335454;28;18009;-71
2023/10/05 00:09:17;;;;;;;0.88;0.70;;;;;;;10.49;87.94;100478.41;335217;28;18705;-71
2023/10/05 00:09:29;;;;;;;2.90;0.90;;;;;;;10.51;88.09;100475.78;338107;28;4555;-71
2023/10/05 00:09:43;;;;;;;2.80;0.85;;;;;;;10.53;87.71;100474.00;333261;28;17942;-71
2023/10/05 00:09:57;;;;;;;2.05;0.68;;;;;;;10.56;87.79;100473.94;334149;28;11859;-71
2023/10/05 00:10:12;;;;;;;0.57;0.50;;;;;;;10.55;87.36;100480.03;336652;28;4935;-71
2023/10/05 00:10:24;;;;;;;1.13;0.63;;;;;;;10.57;87.22;100476.50;334257;28;17897;-71
2023/10/05 00:10:36;;;;;;;2.67;0.80;;;;;;;10.54;87.33;100475.72;335398;28;5570;-71
2023/10/05 00:10:48;;;;;;;2.42;0.80;;;;;;;10.56;87.10;100485.22;337568;28;5277;-71
2023/10/05 00:11:00;;;;;;;1.48;0.73;;;;;;;10.56;87.12;100476.53;337583;28;5408;-71
2023/10/05 00:11:23;;;;;;;1.45;0.82;;;;;;;10.57;86.74;100478.25;335533;28;19604;-71
2023/10/05 00:11:36;;;;;;;2.72;0.80;;;;;;;10.56;86.77;100473.94;335110;28;17380;-70
2023/10/05 00:11:48;;;;;;;2.30;0.70;;;;;;;10.56;86.78;100477.41;334944;28;17933;-71
2023/10/05 00:12:04;;;;;;;1.60;0.70;;;;;;;10.58;86.26;100482.56;337685;28;5393;-71
2023/10/05 00:12:22;;;;;;;1.30;0.60;;;;;;;10.57;86.24;100467.88;335098;28;18629;-71
2023/10/05 00:12:35;;;;;;;1.27;0.70;;;;;;;10.57;86.54;100470.47;334696;28;17852;-71
2023/10/05 00:12:47;;;;;;;0.88;0.70;;;;;;;10.58;86.51;100472.16;335568;28;18048;-71
2023/10/05 00:13:05;;;;;;;0.77;0.60;;;;;;;10.56;86.36;100477.41;335727;28;4664;-71
2023/10/05 00:13:17;;;;;;;1.77;0.65;;;;;;;10.56;86.14;100473.94;328425;28;18292;-71
2023/10/05 00:13:32;;;;;;;2.00;0.70;;;;;;;10.56;86.25;100471.34;335551;28;16937;-71
2023/10/05 00:13:44;;;;;;;1.13;0.70;;;;;;;10.54;86.33;100475.72;333919;28;17766;-71
2023/10/05 00:14:03;;;;;;;1.10;0.70;;;;;;;10.50;86.44;100468.84;336720;28;5058;-71
2023/10/05 00:14:16;;;;;;;1.02;0.70;;;;;;;10.46;86.58;100465.44;333820;28;18211;-71
2023/10/05 00:14:28;;;;;;;1.00;0.70;;;;;;;10.46;87.05;100467.19;333822;28;17717;-71
2023/10/05 00:14:40;;;;;;;1.00;0.70;;;;;;;10.45;86.98;100471.56;337350;28;5368;-71
2023/10/05 00:15:14;;;;;;;1.45;0.80;;;;;;;10.44;86.98;100468.97;333807;28;4580;-71
2023/10/05 00:15:27;;;;;;;1.88;0.90;;;;;;;10.44;87.05;100466.38;333880;28;17088;-71
2023/10/05 00:15:39;;;;;;;1.38;0.80;;;;;;;10.46;87.06;100467.19;335679;28;5868;-71
2023/10/05 00:15:51;;;;;;;1.60;0.90;;;;;;;10.48;86.97;100465.44;338472;28;5344;-71
2023/10/05 00:16:05;;;;;;;1.35;0.85;;;;;;;10.49;86.83;100467.16;334398;28;17619;-71
2023/10/05 00:16:20;;;;;;;0.75;0.68;;;;;;;10.48;86.53;100468.88;337889;28;4757;-71
2023/10/05 00:16:39;;;;;;;1.27;0.75;;;;;;;10.48;86.41;100465.44;332426;28;18018;-71
2023/10/05 00:16:54;;;;;;;1.45;0.85;;;;;;;10.45;86.59;100460.31;335740;28;17978;-71
2023/10/05 00:17:07;;;;;;;1.40;0.93;;;;;;;10.46;86.88;100462.00;331519;28;18015;-71
2023/10/05 00:17:19;;;;;;;1.77;0.93;;;;;;;10.47;86.83;100463.72;338559;28;4687;-71
2023/10/05 00:17:36;;;;;;;1.25;0.60;;;;;;;10.47;86.70;100464.56;334179;28;18983;-71
2023/10/05 00:17:49;;;;;;;1.17;0.93;;;;;;;10.46;86.66;100462.00;334390;28;17607;-71
2023/10/05 00:18:01;;;;;;;2.10;1.20;;;;;;;10.45;86.60;100460.31;335087;28;18649;-71
2023/10/05 00:18:19;;;;;;;1.85;1.02;;;;;;;10.44;86.70;100458.56;337019;28;4542;-71
2023/10/05 00:18:32;;;;;;;1.27;0.80;;;;;;;10.41;86.85;100463.84;334105;28;17672;-71
2023/10/05 00:18:44;;;;;;;1.77;0.80;;;;;;;10.39;86.94;100462.13;338348;28;4506;-71
2023/10/05 00:18:56;;;;;;;1.88;0.95;;;;;;;10.41;86.70;100461.25;335122;28;17965;-71
2023/10/05 00:19:11;;;;;;;1.50;0.90;;;;;;;10.41;86.94;100458.66;338161;28;5053;-71
2023/10/05 00:19:26;;;;;;;2.85;0.93;;;;;;;10.43;87.12;100459.47;335788;28;17911;-71
2023/10/05 00:19:39;;;;;;;2.63;1.00;;;;;;;10.42;86.99;100455.16;336314;28;17767;-71
2023/10/05 00:19:52;;;;;;;1.95;1.00;;;;;;;10.44;86.79;100458.56;337028;28;18011;-71
2023/10/05 00:20:21;;;;;;;1.60;0.95;;;;;;;10.45;86.78;100460.31;339774;28;5783;-71
2023/10/05 00:20:38;;;;;;;2.35;1.02;;;;;;;10.45;87.50;100457.69;336170;28;17830;-71
2023/10/05 00:20:53;;;;;;;2.20;1.08;;;;;;;10.46;87.28;100462.00;336566;28;17607;-71
2023/10/05 00:21:07;;;;;;;1.17;0.90;;;;;;;10.47;87.36;100458.53;331183;28;17888;-71
2023/10/05 00:21:20;;;;;;;1.52;0.90;;;;;;;10.49;86.85;100456.75;335632;28;18130;-71
2023/10/05 00:21:35;;;;;;;2.53;1.27;;;;;;;10.50;86.98;100459.34;335214;28;17955;-71
2023/10/05 00:21:51;;;;;;;2.03;1.15;;;;;;;10.46;87.11;100459.41;334972;28;17903;-71
2023/10/05 00:22:04;;;;;;;1.10;0.82;;;;;;;10.47;86.84;100458.53;334362;28;18466;-71
2023/10/05 00:22:17;;;;;;;2.03;0.82;;;;;;;10.48;86.77;100460.22;336432;28;18314;-71
2023/10/05 00:22:30;;;;;;;1.60;0.68;;;;;;;10.48;86.79;100460.22;335393;28;18971;-71
2023/10/05 00:22:43;;;;;;;0.65;0.60;;;;;;;10.46;86.66;100462.00;334923;28;5320;-71
2023/10/05 00:22:57;;;;;;;0.75;0.65;;;;;;;10.46;86.58;100464.59;338105;28;4683;-71
2023/10/05 00:23:11;;;;;;;1.52;0.75;;;;;;;10.47;86.97;100455.94;334932;28;18074;-71
2023/10/05 00:23:23;;;;;;;1.83;0.95;;;;;;;10.48;86.72;100465.44;336125;28;19072;-71
2023/10/05 00:23:36;;;;;;;1.58;1.10;;;;;;;10.44;86.45;100462.03;339120;28;4532;-71
2023/10/05 00:23:54;;;;;;;1.70;1.02;;;;;;;10.44;86.87;100458.56;336506;28;18115;-71
2023/10/05 00:24:07;;;;;;;2.13;0.82;;;;;;;10.45;87.41;100463.75;334119;28;18883;-71
2023/10/05 00:24:40;;;;;;;2.88;0.93;;;;;;;10.46;86.78;100456.81;335071;28;19111;-71
2023/10/05 00:24:52;;;;;;;1.52;1.00;;;;;;;10.50;87.19;100466.25;334057;28;18079;-71
2023/10/05 00:25:06;;;;;;;1.60;1.00;;;;;;;10.50;86.84;100461.94;335923;28;4927;-71
2023/10/05 00:25:18;;;;;;;1.10;0.80;;;;;;;10.52;86.83;100464.47;334704;28;18043;-71
2023/10/05 00:25:32;;;;;;;0.88;0.63;;;;;;;10.51;86.75;100466.22;332115;28;5029;-71
2023/10/05 00:25:44;;;;;;;1.00;0.70;;;;;;;10.51;86.87;100466.22;333561;28;17820;-71
2023/10/05 00:25:57;;;;;;;0.90;0.70;;;;;;;10.54;86.40;100467.91;335781;28;4649;-71
2023/10/05 00:26:09;;;;;;;1.92;0.60;;;;;;;10.51;86.53;100462.78;334763;28;18036;-71
2023/10/05 00:26:23;;;;;;;1.88;0.60;;;;;;;10.49;86.71;100469.75;336919;28;5361;-71
2023/10/05 00:26:36;;;;;;;1.25;0.60;;;;;;;10.49;86.49;100461.97;333863;28;18970;-71
2023/10/05 00:26:49;;;;;;;1.65;0.82;;;;;;;10.47;86.79;100466.34;337033;28;18159;-71
2023/10/05 00:27:03;;;;;;;1.83;1.00;;;;;;;10.48;87.42;100465.44;335269;28;17540;-71
2023/10/05 00:27:15;;;;;;;1.63;0.90;;;;;;;10.46;87.51;100462.00;335943;28;17893;-71
2023/10/05 00:27:29;;;;;;;1.80;0.82;;;;;;;10.46;87.29;100462.00;337213;28;4537;-71
2023/10/05 00:27:44;;;;;;;1.02;0.65;;;;;;;10.47;87.01;100467.19;335129;28;18225;-71
2023/10/05 00:27:56;;;;;;;1.00;0.70;;;;;;;10.48;87.10;100462.81;334270;28;18524;-71
2023/10/05 00:28:10;;;;;;;1.13;0.77;;;;;;;10.48;86.94;100470.63;338772;28;4731;-71
2023/10/05 00:28:24;;;;;;;1.02;0.77;;;;;;;10.49;87.10;100464.56;334096;28;18577;-71
2023/10/05 00:28:37;;;;;;;1.00;0.70;;;;;;;10.51;86.87;100462.78;334809;28;17836;-71
2023/10/05 00:29:04;;;;;;;1.05;0.70;;;;;;;10.51;86.75;100460.19;336608;28;10588;-71
2023/10/05 00:29:41;;;;;;;2.35;0.60;;;;;;;10.57;87.48;100467.88;332067;28;17494;-71
2023/10/05 00:29:56;;;;;;;1.85;0.50;;;;;;;10.56;87.19;100460.94;333716;28;17354;-71
2023/10/05 00:30:12;;;;;;;1.42;0.80;;;;;;;10.57;87.28;100457.47;334904;28;17797;-71
2023/10/05 00:30:24;;;;;;;2.53;1.10;;;;;;;10.59;87.41;100458.28;335615;28;18049;-71
2023/10/05 00:30:37;;;;;;;2.83;0.95;;;;;;;10.61;87.24;100451.31;333776;28;17979;-71
2023/10/05 00:30:52;;;;;;;4.53;0.82;;;;;;;10.62;87.25;100450.41;336522;28;4585;-71
2023/10/05 00:31:06;;;;;;;3.53;0.95;;;;;;;10.62;87.34;100458.22;334280;28;17839;-71
2023/10/05 00:31:23;;;;;;;1.20;0.95;;;;;;;10.62;87.83;100454.75;334426;28;18972;-71
2023/10/05 00:31:39;;;;;;;1.42;1.00;;;;;;;10.62;87.42;100453.00;336175;28;17478;-71
2023/10/05 00:31:51;;;;;;;1.83;1.00;;;;;;;10.64;87.17;100456.44;334453;28;18225;-71
2023/10/05 00:32:07;;;;;;;1.60;0.98;;;;;;;10.62;87.67;100463.41;336216;28;4716;-71
2023/10/05 00:32:39;;;;;;;1.23;0.77;;;;;;;10.61;87.81;100461.72;334232;28;17750;-71
2023/10/05 00:32:58;;;;;;;4.03;0.70;;;;;;;10.61;87.99;100461.72;335177;28;17586;-71
2023/10/05 00:33:11;;;;;;;4.60;0.80;;;;;;;10.59;88.47;100458.28;334041;28;13935;-71
2023/10/05 00:33:23;;;;;;;1.55;0.77;;;;;;;10.57;89.23;100460.06;336308;28;18136;-71
2023/10/05 00:33:36;;;;;;;1.10;0.70;;;;;;;10.57;89.18;100460.06;338762;28;4684;-71
2023/10/05 00:33:48;;;;;;;1.03;0.77;;;;;;;10.56;89.14;100460.94;334759;28;18154;-71
2023/10/05 00:34:02;;;;;;;1.00;0.80;;;;;;;10.59;89.38;100459.13;337594;28;5954;-71
2023/10/05 00:34:33;;;;;;;0.90;0.50;;;;;;;10.61;87.92;100460.88;337040;28;17829;-71
2023/10/05 00:34:51;;;;;;;1.40;0.88;;;;;;;10.64;87.62;100463.38;336218;28;18199;-71
2023/10/05 00:35:16;;;;;;;2.20;1.08;;;;;;;10.67;87.89;100456.38;335122;28;15848;-71
2023/10/05 00:35:29;;;;;;;1.10;0.90;;;;;;;10.66;88.15;100456.41;334371;28;17316;-71
2023/10/05 00:35:41;;;;;;;1.23;0.80;;;;;;;10.69;88.26;100459.81;336003;28;5263;-71
2023/10/05 00:35:54;;;;;;;7.15;0.80;;;;;;;10.66;88.74;100459.88;332976;28;18337;-71
2023/10/05 00:36:06;;;;;;;7.80;1.02;;;;;;;10.67;88.76;100461.59;336410;28;4616;-71
2023/10/05 00:36:18;;;;;;;4.65;0.95;;;;;;;10.68;88.80;100452.03;334157;28;5463;-71
2023/10/05 00:36:32;;;;;;;1.10;0.80;;;;;;;10.70;88.36;100456.31;336078;28;5399;-71
2023/10/05 00:36:49;;;;;;;1.55;1.05;;;;;;;10.70;88.79;100456.31;333690;28;17456;-71
2023/10/05 00:37:02;;;;;;;2.33;1.20;;;;;;;10.70;87.95;100456.31;333269;28;17880;-71
2023/10/05 00:37:17;;;;;;;1.98;0.90;;;;;;;10.69;87.54;100457.22;335088;28;18178;-71
2023/10/05 00:37:29;;;;;;;1.20;0.73;;;;;;;10.69;88.23;100457.22;334771;28;17971;-71
2023/10/05 00:37:46;;;;;;;2.00;0.70;;;;;;;10.67;88.43;100451.19;336817;28;5546;-71
2023/10/05 00:38:14;;;;;;;1.85;0.70;;;;;;;10.68;88.85;100457.25;334936;28;17684;-71
2023/10/05 00:38:29;;;;;;;0.75;0.60;;;;;;;10.68;88.25;100455.50;334564;28;17309;-71
2023/10/05 00:38:43;;;;;;;0.90;0.50;;;;;;;10.69;88.39;100458.97;335790;28;17903;-71
2023/10/05 00:39:01;;;;;;;1.08;0.60;;;;;;;10.69;88.34;100454.63;335400;28;18831;-71
2023/10/05 00:39:16;;;;;;;0.88;0.65;;;;;;;10.69;88.73;100458.97;331370;28;17858;-71
2023/10/05 00:39:31;;;;;;;0.70;0.70;;;;;;;10.69;88.17;100446.81;335334;28;18003;-71
2023/10/05 00:39:49;;;;;;;1.17;0.93;;;;;;;10.67;88.28;100456.38;334820;28;17673;-71
2023/10/05 00:40:02;;;;;;;1.45;1.00;;;;;;;10.67;88.38;100456.38;334805;28;17863;-71
2023/10/05 00:40:27;;;;;;;1.05;0.73;;;;;;;10.68;88.12;100457.25;334419;28;17617;-71
2023/10/05 00:40:54;;;;;;;1.77;0.80;;;;;;;10.71;87.71;100452.00;336554;28;17456;-71
2023/10/05 00:41:09;;;;;;;1.70;0.80;;;;;;;10.72;87.79;100458.88;333739;28;17270;-71
2023/10/05 00:41:22;;;;;;;1.00;0.60;;;;;;;10.75;87.61;100464.91;334495;28;17943;-71
2023/10/05 00:41:34;;;;;;;0.75;0.52;;;;;;;10.76;87.66;100461.38;338935;28;4670;-71
2023/10/05 00:42:08;;;;;;;1.00;0.70;;;;;;;10.77;87.18;100457.06;335613;28;17799;-71
2023/10/05 00:42:20;;;;;;;0.88;0.70;;;;;;;10.79;87.07;100461.34;330973;28;17587;-71
2023/10/05 00:42:33;;;;;;;0.77;0.70;;;;;;;10.81;87.38;100455.25;336808;28;17689;-71
2023/10/05 00:42:45;;;;;;;0.90;0.60;;;;;;;10.79;87.18;100460.50;338168;28;4534;-71
2023/10/05 00:43:03;;;;;;;1.08;0.70;;;;;;;10.76;87.54;100458.78;335373;28;8656;-71
2023/10/05 00:43:24;;;;;;;0.77;0.60;;;;;;;10.73;87.51;100458.88;336032;28;18699;-71
2023/10/05 00:43:36;;;;;;;0.50;0.40;;;;;;;10.72;87.52;100459.75;338894;28;17330;-71
2023/10/05 00:43:49;;;;;;;1.65;0.50;;;;;;;10.73;87.37;100461.47;336442;28;18024;-71
2023/10/05 00:44:01;;;;;;;3.00;0.57;;;;;;;10.72;87.04;100459.75;337565;28;4722;-71
2023/10/05 00:44:13;;;;;;;3.30;0.60;;;;;;;10.72;87.40;100466.69;334219;28;17778;-71
2023/10/05 00:44:26;;;;;;;0.82;0.50;;;;;;;10.71;87.58;100460.63;336770;28;5452;-71
2023/10/05 00:44:41;;;;;;;0.60;0.43;;;;;;;10.69;87.89;100454.63;333640;28;18234;-71
2023/10/05 00:44:53;;;;;;;0.73;0.60;;;;;;;10.68;88.04;100458.09;332324;28;17890;-71
2023/10/05 00:45:09;;;;;;;0.82;0.73;;;;;;;10.71;87.51;100458.03;334332;29;4818;-71
2023/10/05 00:45:27;;;;;;;0.80;0.60;;;;;;;10.69;87.65;100459.81;331830;29;17918;-71
2023/10/05 00:45:40;;;;;;;0.80;0.40;;;;;;;10.70;87.31;100461.50;331888;29;17871;-71
2023/10/05 00:45:58;;;;;;;0.70;0.40;;;;;;;10.71;87.18;100458.03;332707;28;18274;-71
2023/10/05 00:46:11;;;;;;;0.60;0.40;;;;;;;10.75;86.58;100453.63;332725;28;18050;-71
2023/10/05 00:46:23;;;;;;;0.95;0.47;;;;;;;10.72;86.64;100457.13;335126;28;6521;-71
2023/10/05 00:46:38;;;;;;;1.67;0.50;;;;;;;10.74;86.41;100455.38;337119;28;4708;-71
2023/10/05 00:46:50;;;;;;;1.77;0.50;;;;;;;10.74;86.55;100452.75;333627;28;18018;-71
2023/10/05 00:47:06;;;;;;;1.83;0.57;;;;;;;10.73;86.69;100453.66;337735;28;4583;-71
2023/10/05 00:47:18;;;;;;;0.77;0.40;;;;;;;10.75;86.99;100454.50;333160;28;16948;-71
2023/10/05 00:47:32;;;;;;;0.60;0.40;;;;;;;10.76;86.89;100453.59;332591;28;17688;-71
2023/10/05 00:47:44;;;;;;;0.60;0.50;;;;;;;10.76;86.67;100456.19;333958;28;11759;-71
2023/10/05 00:48:08;;;;;;;0.55;0.50;;;;;;;10.76;87.23;100456.19;336304;28;4659;-71
2023/10/05 00:49:04;;;;;;;0.52;0.40;;;;;;;10.72;88.24;100454.53;333870;28;16592;-71
2023/10/05 00:49:17;;;;;;;0.90;0.70;;;;;;;10.68;87.92;100450.28;329207;28;17025;-71
2023/10/05 00:49:41;;;;;;;0.50;0.47;;;;;;;10.68;88.11;100446.84;334966;28;17440;-71
2023/10/05 00:49:53;;;;;;;1.40;0.40;;;;;;;10.65;88.28;100447.75;335222;28;17478;-71
2023/10/05 00:50:05;;;;;;;1.38;0.50;;;;;;;10.64;88.30;100446.03;338131;28;11430;-71
2023/10/05 00:50:19;;;;;;;0.50;0.50;;;;;;;10.65;88.06;100445.16;329768;28;18239;-71
2023/10/05 00:50:34;;;;;;;1.00;0.60;;;;;;;10.65;88.39;100445.16;335995;28;10746;-71
2023/10/05 00:50:46;;;;;;;1.20;0.70;;;;;;;10.67;88.76;100447.75;336883;28;10716;-71
2023/10/05 00:51:07;;;;;;;0.73;0.60;;;;;;;10.65;89.17;100447.75;333712;28;16120;-71
2023/10/05 00:51:26;;;;;;;0.90;0.57;;;;;;;10.69;88.73;100449.41;335930;28;17706;-71
2023/10/05 00:51:40;;;;;;;1.08;0.70;;;;;;;10.69;88.04;100452.00;330831;28;17718;-71
2023/10/05 00:52:02;;;;;;;1.15;0.60;;;;;;;10.70;87.99;100447.66;336164;28;17969;-71
2023/10/05 00:52:15;;;;;;;1.20;0.60;;;;;;;10.68;87.86;100450.28;334868;28;17319;-71
2023/10/05 00:52:30;;;;;;;1.23;0.60;;;;;;;10.68;87.60;100452.88;334926;28;18171;-71
2023/10/05 00:52:44;;;;;;;1.15;0.57;;;;;;;10.67;87.72;100451.19;335815;28;19091;-71
2023/10/05 00:52:59;;;;;;;1.13;0.57;;;;;;;10.66;88.05;100449.47;337367;28;17882;-71
2023/10/05 00:53:11;;;;;;;1.85;0.80;;;;;;;10.66;88.52;100446.88;334330;28;17225;-71
2023/10/05 00:53:24;;;;;;;1.92;0.80;;;;;;;10.68;87.76;100447.69;334294;28;17868;-71
2023/10/05 00:53:36;;;;;;;1.88;0.75;;;;;;;10.68;87.59;100447.69;337352;28;5125;-71
2023/10/05 00:53:50;;;;;;;0.70;0.60;;;;;;;10.69;87.88;100454.63;335261;28;10088;-71
2023/10/05 00:54:10;;;;;;;0.77;0.57;;;;;;;10.68;87.92;100445.09;334467;28;10791;-71
2023/10/05 00:54:30;;;;;;;0.55;0.47;;;;;;;10.72;87.29;100444.13;335023;28;17991;-71
2023/10/05 00:54:49;;;;;;;0.60;0.43;;;;;;;10.73;87.59;100445.03;332954;28;17719;-71
2023/10/05 00:55:10;;;;;;;2.05;0.45;;;;;;;10.74;87.47;100450.16;335691;28;17378;-71
2023/10/05 00:55:22;;;;;;;0.50;0.50;;;;;;;10.75;87.60;100451.03;336013;28;17772;-71
2023/10/05 00:55:36;;;;;;;0.52;0.52;;;;;;;10.72;87.52;100446.72;334977;28;18372;-71
2023/10/05 00:55:57;;;;;;;0.50;0.50;;;;;;;10.72;87.54;100438.94;333947;28;5546;-71
2023/10/05 00:56:12;;;;;;;0.63;0.60;;;;;;;10.70;87.42;100448.50;334329;28;17278;-71
2023/10/05 00:56:24;;;;;;;0.63;0.57;;;;;;;10.70;87.61;100442.47;335011;28;17067;-71
2023/10/05 00:56:41;;;;;;;0.60;0.57;;;;;;;10.69;88.00;100448.56;337658;28;5109;-71
2023/10/05 00:56:54;;;;;;;0.60;0.55;;;;;;;10.67;87.83;100440.78;335521;28;17839;-71
2023/10/05 00:57:13;;;;;;;0.70;0.55;;;;;;;10.68;87.82;100442.47;338712;28;5141;-71
2023/10/05 00:57:26;;;;;;;0.77;0.50;;;;;;;10.69;87.51;100444.22;334819;28;17411;-71
2023/10/05 00:57:39;;;;;;;0.63;0.50;;;;;;;10.65;87.42;100437.38;338120;28;5403;-71
2023/10/05 00:57:51;;;;;;;0.98;0.60;;;;;;;10.66;87.42;100433.00;331513;28;18582;-71
2023/10/05 00:58:11;;;;;;;1.27;0.60;;;;;;;10.64;87.40;100443.44;339166;28;4665;-71
2023/10/05 00:58:34;;;;;;;1.05;0.50;;;;;;;10.68;87.59;100442.47;335130;28;17720;-71
2023/10/05 00:58:48;;;;;;;1.10;0.60;;;;;;;10.66;87.91;100438.22;335688;28;17714;-71
2023/10/05 00:59:06;;;;;;;0.75;0.50;;;;;;;10.67;88.84;100435.59;334701;28;17447;-71
2023/10/05 00:59:20;;;;;;;1.02;0.68;;;;;;;10.65;88.76;100437.38;337560;28;18046;-71
2023/10/05 00:59:32;;;;;;;0.85;0.65;;;;;;;10.67;88.50;100440.78;335383;28;17768;-71
2023/10/05 00:59:46;;;;;;;0.70;0.57;;;;;;;10.65;88.59;100433.91;334934;28;15741;-71
2023/10/05 01:00:27;;;;;;;1.00;0.60;;;;;;;10.67;88.21;100439.94;336383;28;17124;-71
2023/10/05 01:00:53;;;;;;;0.70;0.60;;;;;;;10.70;87.72;100438.13;335672;28;17415;-71
2023/10/05 01:01:05;;;;;;;0.65;0.50;;;;;;;10.72;87.62;100438.94;335491;28;16983;-71
2023/10/05 01:01:27;;;;;;;0.93;0.57;;;;;;;10.74;87.43;100436.31;339333;28;4835;-71
2023/10/05 01:02:20;;;;;;;0.73;0.65;;;;;;;10.75;87.19;100438.88;333963;28;17719;-71
2023/10/05 01:02:43;;;;;;;0.50;0.50;;;;;;;10.78;87.28;100436.25;334705;28;17347;-71
2023/10/05 01:03:23;;;;;;;1.92;0.80;;;;;;;10.75;87.14;100428.47;334905;28;17716;-71
2023/10/05 01:03:44;;;;;;;1.88;0.70;;;;;;;10.70;87.93;100426.88;335270;28;17821;-71
2023/10/05 01:04:18;;;;;;;0.70;0.60;;;;;;;10.69;87.92;100422.56;334999;28;17178;-71
2023/10/05 01:04:42;;;;;;;0.50;0.47;;;;;;;10.66;88.30;100426.06;335312;28;18132;-71
2023/10/05 01:04:59;;;;;;;0.68;0.60;;;;;;;10.66;88.70;100427.81;337047;28;18877;-71
2023/10/05 01:05:25;;;;;;;0.57;0.52;;;;;;;10.68;88.43;100426.88;334493;28;17871;-71
2023/10/05 01:05:48;;;;;;;0.50;0.50;;;;;;;10.71;87.37;100426.00;336207;28;17058;-71
2023/10/05 01:06:21;;;;;;;0.90;0.67;;;;;;;10.70;87.19;100419.06;337287;28;17147;-71
2023/10/05 01:06:48;;;;;;;1.20;0.80;;;;;;;10.74;86.94;100421.56;336038;28;17542;-71
2023/10/05 01:07:19;;;;;;;0.85;0.60;;;;;;;10.74;87.46;100418.97;337287;28;16031;-71
2023/10/05 01:07:49;;;;;;;2.10;0.60;;;;;;;10.81;86.86;100421.47;334635;28;17356;-71
2023/10/05 01:08:04;;;;;;;0.63;0.47;;;;;;;10.74;87.08;100421.56;335349;28;17428;-71
2023/10/05 01:08:22;;;;;;;0.73;0.50;;;;;;;10.72;87.49;100419.88;329812;28;18001;-71
2023/10/05 01:08:39;;;;;;;1.10;0.60;;;;;;;10.69;87.85;100423.41;335285;28;18074;-71
2023/10/05 01:08:59;;;;;;;1.73;0.60;;;;;;;10.70;87.63;100419.91;334040;28;16532;-71
2023/10/05 01:09:22;;;;;;;0.98;0.50;;;;;;;10.67;87.57;100424.34;334416;28;17691;-71
2023/10/05 01:09:55;;;;;;;2.03;0.75;;;;;;;10.62;87.42;100427.00;335023;28;17309;-71
2023/10/05 01:10:43;;;;;;;1.10;0.65;;;;;;;10.64;87.42;100424.38;335345;28;17021;-71
2023/10/05 01:10:48;;;;;;;1.23;0.77;;;;;;;10.64;87.44;100430.44;332881;28;17299;-71
2023/10/05 01:11:01;;;;;;;2.67;0.85;;;;;;;10.65;87.38;100421.78;335280;28;17958;-71
2023/10/05 01:11:15;;;;;;;2.92;0.70;;;;;;;10.66;86.98;100423.47;337108;28;4593;-71
2023/10/05 01:11:42;;;;;;;1.30;0.65;;;;;;;10.67;86.71;100422.59;334876;28;17492;-71
2023/10/05 01:12:02;;;;;;;0.70;0.50;;;;;;;10.63;86.83;100422.69;334624;28;18342;-71
2023/10/05 01:12:34;;;;;;;0.93;0.60;;;;;;;10.62;86.76;100421.81;334656;28;18260;-71
2023/10/05 01:12:48;;;;;;;0.57;0.40;;;;;;;10.62;86.88;100421.81;329620;28;15993;-71
2023/10/05 01:13:00;;;;;;;0.40;0.40;;;;;;;10.61;86.46;100419.28;335761;28;9784;-71
2023/10/05 01:13:33;;;;;;;0.98;0.47;;;;;;;10.62;86.63;100415.75;338757;28;4796;-71
2023/10/05 01:13:48;;;;;;;0.70;0.60;;;;;;;10.64;87.13;100414.84;334511;28;16909;-71
2023/10/05 01:14:00;;;;;;;0.50;0.50;;;;;;;10.62;86.96;100421.81;338498;28;5033;-71
2023/10/05 01:14:16;;;;;;;0.73;0.43;;;;;;;10.63;87.12;100422.69;335781;28;18108;-71
2023/10/05 01:14:52;;;;;;;2.03;0.60;;;;;;;10.61;86.86;100414.91;334677;28;17979;-71
2023/10/05 01:15:06;;;;;;;2.88;0.70;;;;;;;10.62;86.87;100426.16;336157;28;17787;-71
2023/10/05 01:15:22;;;;;;;1.45;0.80;;;;;;;10.60;87.30;100426.19;336003;28;18479;-71
2023/10/05 01:15:34;;;;;;;2.10;0.70;;;;;;;10.61;87.35;100420.13;335563;28;17186;-71
2023/10/05 01:15:47;;;;;;;1.80;0.47;;;;;;;10.61;87.04;100419.28;338426;28;4726;-71
2023/10/05 01:16:15;;;;;;;0.60;0.50;;;;;;;10.62;87.42;100420.97;334804;28;18237;-71
2023/10/05 01:16:32;;;;;;;0.88;0.68;;;;;;;10.56;87.48;100416.75;333497;28;17375;-71
2023/10/05 01:16:45;;;;;;;1.00;0.70;;;;;;;10.56;87.22;100416.75;333890;28;17872;-71
2023/10/05 01:16:58;;;;;;;1.20;0.75;;;;;;;10.58;87.52;100420.16;334148;28;18359;-71
2023/10/05 01:17:11;;;;;;;0.93;0.65;;;;;;;10.55;88.24;100420.25;337204;28;4523;-71
2023/10/05 01:17:25;;;;;;;1.00;0.70;;;;;;;10.54;87.96;100426.31;334449;28;10349;-71
2023/10/05 01:17:39;;;;;;;0.80;0.57;;;;;;;10.51;88.25;100418.59;331771;28;18784;-71
2023/10/05 01:17:51;;;;;;;0.70;0.60;;;;;;;10.51;88.32;100423.78;337510;28;4553;-71
2023/10/05 01:18:04;;;;;;;0.95;0.70;;;;;;;10.49;87.86;100421.22;335403;28;18509;-71
2023/10/05 01:18:16;;;;;;;1.70;0.90;;;;;;;10.49;87.84;100423.81;338483;28;5551;-71
2023/10/05 01:18:30;;;;;;;1.92;0.80;;;;;;;10.50;88.05;100422.94;335416;28;18256;-71
2023/10/05 01:18:43;;;;;;;1.20;0.70;;;;;;;10.50;88.02;100419.47;338296;28;4496;-71
2023/10/05 01:18:56;;;;;;;0.85;0.80;;;;;;;10.51;87.98;100416.00;335833;28;18314;-71
2023/10/05 01:19:08;;;;;;;1.10;0.73;;;;;;;10.52;88.09;100420.28;334250;28;4543;-71